createdAt,value
2022-12-18T00:01:51.862Z,54.65
2022-12-18T00:04:37.429Z,50.28
2022-12-18T00:07:22.927Z,49.50
2022-12-18T00:10:08.830Z,52.35
2022-12-18T00:12:53.960Z,55.75
2022-12-18T00:15:40.239Z,53.50
2022-12-18T00:18:25.610Z,49.90
2022-12-18T00:21:13.124Z,48.00
2022-12-18T00:23:59.954Z,52.88
2022-12-18T00:26:44.985Z,54.08
2022-12-18T00:29:30.405Z,50.42
2022-12-18T00:32:15.565Z,52.40
2022-12-18T00:35:00.554Z,55.70
2022-12-18T00:37:46.092Z,59.17
2022-12-18T00:40:31.050Z,63.78
2022-12-18T00:43:16.744Z,57.45
2022-12-18T00:46:01.964Z,56.17
2022-12-18T00:48:47.343Z,53.97
2022-12-18T00:51:32.428Z,52.92
2022-12-18T00:54:18.563Z,50.30
2022-12-18T00:57:03.797Z,53.55
2022-12-18T00:59:48.959Z,56.22
2022-12-18T01:02:34.395Z,59.20
2022-12-18T01:05:19.757Z,53.75
2022-12-18T01:08:05.038Z,55.90
2022-12-18T01:10:50.205Z,59.00
2022-12-18T01:13:36.298Z,50.47
2022-12-18T01:16:23.251Z,54.90
2022-12-18T01:19:08.379Z,56.13
2022-12-18T01:21:53.631Z,56.83
2022-12-18T01:24:39.143Z,58.75
2022-12-18T01:27:24.518Z,55.63
2022-12-18T01:30:11.396Z,56.53
2022-12-18T01:32:56.649Z,59.45
2022-12-18T01:35:43.268Z,57.50
2022-12-18T01:38:32.004Z,57.72
2022-12-18T01:41:20.555Z,59.92
2022-12-18T01:44:44.274Z,57.17
2022-12-18T01:47:34.164Z,56.95
2022-12-18T01:50:31.499Z,55.63
2022-12-18T01:53:23.497Z,59.17
2022-12-18T01:56:12.459Z,61.88
2022-12-18T01:59:04.590Z,44.15
2022-12-18T02:01:49.874Z,57.30
2022-12-18T02:04:36.247Z,69.00
2022-12-18T02:07:33.221Z,59.97
2022-12-18T02:10:57.858Z,50.37
2022-12-18T02:14:20.772Z,62.75
2022-12-18T02:17:18.857Z,60.42
2022-12-18T02:20:31.612Z,63.05
2022-12-18T02:23:46.282Z,60.42
2022-12-18T02:26:54.145Z,67.05
2022-12-18T02:29:57.648Z,66.22
2022-12-18T02:32:50.482Z,62.63
2022-12-18T02:35:37.305Z,58.72
2022-12-18T02:38:24.319Z,58.17
2022-12-18T02:41:12.274Z,59.75
2022-12-18T02:44:00.064Z,66.53
2022-12-18T02:46:51.164Z,65.18
2022-12-18T02:49:42.795Z,60.08
2022-12-18T02:52:35.165Z,60.58
2022-12-18T02:55:41.392Z,60.05
2022-12-18T02:58:52.712Z,59.08
2022-12-18T03:02:18.317Z,63.35
2022-12-18T03:05:13.951Z,55.50
2022-12-18T03:08:23.034Z,60.13
2022-12-18T03:11:11.822Z,59.58
2022-12-18T03:16:45.607Z,59.83
2022-12-18T03:19:33.636Z,62.97
2022-12-18T03:22:22.916Z,61.83
2022-12-18T03:25:14.978Z,66.05
2022-12-18T03:28:03.092Z,65.38
2022-12-18T03:30:54.387Z,73.18
2022-12-18T03:34:00.096Z,63.67
2022-12-18T03:36:54.069Z,60.20
2022-12-18T03:39:42.355Z,62.17
2022-12-18T03:42:38.289Z,60.05
2022-12-18T03:45:36.780Z,62.90
2022-12-18T03:48:38.824Z,74.13
2022-12-18T03:51:31.592Z,72.45
2022-12-18T03:54:18.188Z,60.35
2022-12-18T03:57:16.733Z,84.78
2022-12-18T04:00:09.325Z,84.70
2022-12-18T04:03:13.082Z,84.40
2022-12-18T04:06:07.411Z,99.70
2022-12-18T04:08:53.349Z,90.85
2022-12-18T04:11:45.314Z,95.93
2022-12-18T04:14:36.470Z,94.82
2022-12-18T04:17:23.827Z,96.13
2022-12-18T04:20:09.947Z,96.68
2022-12-18T04:22:58.601Z,110.72
2022-12-18T04:25:48.665Z,107.43
2022-12-18T04:28:41.455Z,108.53
2022-12-18T04:31:27.305Z,112.15
2022-12-18T04:34:12.500Z,99.57
2022-12-18T04:37:03.858Z,104.05
2022-12-18T04:39:49.951Z,97.20
2022-12-18T04:42:42.812Z,101.95
2022-12-18T04:45:28.246Z,110.03
2022-12-18T04:48:13.349Z,104.78
2022-12-18T04:50:59.102Z,99.53
2022-12-18T04:53:44.348Z,101.53
2022-12-18T04:56:32.263Z,92.85
2022-12-18T04:59:17.535Z,93.40
2022-12-18T05:02:02.858Z,99.63
2022-12-18T05:04:48.373Z,88.40
2022-12-18T05:07:33.854Z,89.38
2022-12-18T05:10:19.182Z,96.47
2022-12-18T05:13:04.662Z,91.47
2022-12-18T05:15:53.320Z,97.70
2022-12-18T05:18:39.102Z,84.60
2022-12-18T05:21:24.491Z,93.63
2022-12-18T05:24:10.071Z,97.05
2022-12-18T05:26:55.268Z,86.55
2022-12-18T05:29:40.431Z,78.50
2022-12-18T05:32:25.822Z,79.72
2022-12-18T05:35:12.137Z,82.60
2022-12-18T05:37:57.452Z,73.38
2022-12-18T05:40:44.348Z,90.45
2022-12-18T05:43:29.849Z,90.25
2022-12-18T05:46:18.429Z,101.38
2022-12-18T05:49:03.792Z,86.70
2022-12-18T05:51:49.036Z,101.25
2022-12-18T05:54:34.526Z,91.70
2022-12-18T05:57:19.604Z,100.15
2022-12-18T06:00:05.421Z,99.70
2022-12-18T06:02:57.419Z,90.90
2022-12-18T06:05:50.853Z,100.87
2022-12-18T06:08:42.929Z,96.10
2022-12-18T06:11:31.456Z,96.82
2022-12-18T06:14:18.147Z,106.63
2022-12-18T06:17:03.464Z,106.20
2022-12-18T06:19:48.716Z,97.10
2022-12-18T06:22:35.833Z,106.82
2022-12-18T06:25:21.185Z,106.28
2022-12-18T06:28:06.785Z,102.80
2022-12-18T06:30:52.041Z,102.22
2022-12-18T06:33:37.694Z,102.55
2022-12-18T06:36:23.169Z,92.50
2022-12-18T06:39:08.172Z,101.55
2022-12-18T06:41:54.635Z,95.15
2022-12-18T06:44:40.086Z,93.50
2022-12-18T06:47:25.469Z,98.68
2022-12-18T06:50:11.281Z,97.85
2022-12-18T06:52:56.635Z,93.63
2022-12-18T06:55:42.001Z,99.57
2022-12-18T06:58:27.997Z,95.30
2022-12-18T07:01:14.294Z,90.32
2022-12-18T07:03:59.916Z,99.55
2022-12-18T07:06:44.879Z,82.63
2022-12-18T07:09:30.216Z,81.22
2022-12-18T07:12:15.945Z,82.00
2022-12-18T07:15:01.062Z,78.93
2022-12-18T07:17:46.419Z,73.10
2022-12-18T07:20:31.786Z,76.00
2022-12-18T07:23:17.260Z,81.18
2022-12-18T07:26:10.900Z,75.47
2022-12-18T07:28:58.425Z,72.95
2022-12-18T07:31:43.772Z,84.78
2022-12-18T07:34:28.893Z,78.78
2022-12-18T07:37:14.200Z,74.68
2022-12-18T07:40:00.090Z,72.53
2022-12-18T07:42:45.720Z,70.63
2022-12-18T07:45:31.074Z,76.10
2022-12-18T07:48:16.431Z,65.75
2022-12-18T07:51:03.693Z,72.53
2022-12-18T07:53:49.688Z,78.07
2022-12-18T07:56:37.083Z,75.70
2022-12-18T07:59:22.670Z,79.15
2022-12-18T08:02:08.029Z,79.97
2022-12-18T08:04:53.353Z,73.68
2022-12-18T08:07:38.770Z,75.90
2022-12-18T08:10:24.004Z,71.78
2022-12-18T08:13:09.093Z,77.70
2022-12-18T08:16:04.517Z,82.30
2022-12-18T08:18:50.636Z,76.10
2022-12-18T08:21:36.247Z,80.85
2022-12-18T08:24:21.616Z,81.53
2022-12-18T08:27:28.296Z,79.00
2022-12-18T08:30:12.908Z,73.57
2022-12-18T08:32:59.012Z,67.50
2022-12-18T08:35:46.039Z,71.45
2022-12-18T08:38:33.061Z,73.55
2022-12-18T08:41:19.199Z,72.68
2022-12-18T08:44:23.048Z,77.43
2022-12-18T08:47:08.960Z,69.00
2022-12-18T08:49:54.276Z,64.63
2022-12-18T08:52:39.502Z,67.72
2022-12-18T08:55:25.861Z,71.53
2022-12-18T08:58:11.633Z,71.03
2022-12-18T09:01:05.801Z,67.68
2022-12-18T09:03:51.815Z,67.40
2022-12-18T09:06:37.742Z,65.97
2022-12-18T09:09:23.352Z,69.05
2022-12-18T09:12:08.771Z,67.22
2022-12-18T09:14:54.157Z,64.22
2022-12-18T09:17:39.306Z,61.28
2022-12-18T09:20:25.417Z,64.72
2022-12-18T09:23:10.879Z,55.60
2022-12-18T09:26:00.321Z,61.60
2022-12-18T09:28:45.911Z,59.58
2022-12-18T09:31:31.433Z,71.97
2022-12-18T09:34:17.629Z,62.70
2022-12-18T09:37:03.168Z,64.30
2022-12-18T09:39:48.422Z,60.58
2022-12-18T09:42:34.085Z,57.25
2022-12-18T09:45:19.491Z,56.10
2022-12-18T09:48:06.332Z,62.08
2022-12-18T09:50:55.997Z,58.40
2022-12-18T09:53:45.565Z,62.17
2022-12-18T09:56:38.552Z,62.45
2022-12-18T09:59:40.761Z,58.58
2022-12-18T10:02:30.907Z,60.42
2022-12-18T10:05:42.989Z,73.05
2022-12-18T10:08:52.812Z,104.25
2022-12-18T10:11:56.092Z,70.85
2022-12-18T10:14:51.571Z,67.95
2022-12-18T10:17:49.900Z,53.25
2022-12-18T10:20:44.666Z,59.83
2022-12-18T10:23:51.752Z,58.30
2022-12-18T10:26:37.345Z,64.65
2022-12-18T10:29:23.522Z,64.53
2022-12-18T10:32:16.216Z,66.00
2022-12-18T10:35:01.938Z,65.07
2022-12-18T10:38:06.057Z,72.20
2022-12-18T10:40:59.955Z,64.45
2022-12-18T10:43:45.646Z,67.97
2022-12-18T10:46:31.065Z,67.50
2022-12-18T10:49:28.327Z,64.35
2022-12-18T10:52:21.645Z,68.28
2022-12-18T10:55:17.570Z,69.78
2022-12-18T10:58:29.824Z,77.53
2022-12-18T11:01:22.710Z,66.97
2022-12-18T11:04:10.361Z,68.38
2022-12-18T11:07:06.936Z,67.75
2022-12-18T11:10:02.056Z,73.40
2022-12-18T11:12:49.311Z,67.22
2022-12-18T11:15:34.778Z,64.93
2022-12-18T11:18:29.866Z,75.25
2022-12-18T11:21:15.681Z,72.65
2022-12-18T11:24:01.161Z,64.68
2022-12-18T11:26:46.393Z,70.10
2022-12-18T11:29:46.210Z,55.42
2022-12-18T11:32:38.652Z,59.13
2022-12-18T11:35:37.019Z,59.10
2022-12-18T11:38:31.638Z,56.30
2022-12-18T11:41:54.478Z,51.38
2022-12-18T11:45:00.426Z,56.08
2022-12-18T11:47:45.457Z,60.00
2022-12-18T11:50:43.708Z,65.78
2022-12-18T11:53:31.224Z,60.88
2022-12-18T11:56:25.816Z,59.35
2022-12-18T11:59:34.046Z,56.30
2022-12-18T12:02:38.077Z,61.13
2022-12-18T12:05:46.049Z,58.28
2022-12-18T12:08:58.341Z,59.58
2022-12-18T12:12:10.193Z,59.08
2022-12-18T12:15:03.971Z,63.13
2022-12-18T12:18:00.068Z,62.70
2022-12-18T12:20:57.448Z,56.88
2022-12-18T12:23:46.257Z,59.33
2022-12-18T12:26:44.582Z,38.38
2022-12-18T12:30:04.879Z,55.88
2022-12-18T12:33:11.030Z,53.92
2022-12-18T12:36:22.733Z,52.80
2022-12-18T12:39:15.381Z,59.72
2022-12-18T12:42:24.363Z,53.35
2022-12-18T12:45:20.614Z,52.65
2022-12-18T12:48:14.849Z,51.38
2022-12-18T12:51:05.039Z,48.97
2022-12-18T12:53:50.954Z,49.20
2022-12-18T12:56:58.866Z,48.33
2022-12-18T13:00:09.242Z,44.92
2022-12-18T13:03:18.896Z,54.47
2022-12-18T13:06:14.694Z,45.90
2022-12-18T13:09:01.501Z,47.83
2022-12-18T13:12:06.955Z,49.78
2022-12-18T13:14:52.035Z,54.72
2022-12-18T13:17:38.031Z,57.35
2022-12-18T13:20:34.788Z,52.88
2022-12-18T13:23:26.080Z,56.33
2022-12-18T13:26:17.473Z,53.50
2022-12-18T13:29:05.829Z,53.75
2022-12-18T13:31:51.995Z,49.95
2022-12-18T13:34:37.906Z,53.35
2022-12-18T13:37:32.403Z,57.60
2022-12-18T13:40:39.482Z,51.15
2022-12-18T13:43:29.502Z,57.15
2022-12-18T13:46:24.489Z,52.53
2022-12-18T13:49:12.912Z,56.95
2022-12-18T13:52:01.187Z,49.50
2022-12-18T13:54:52.741Z,51.80
2022-12-18T13:57:39.720Z,54.63
2022-12-18T14:00:29.511Z,53.75
2022-12-18T14:03:24.360Z,48.92
2022-12-18T14:06:13.344Z,52.85
2022-12-18T14:09:00.874Z,57.03
2022-12-18T14:11:51.166Z,55.10
2022-12-18T14:14:37.512Z,52.80
2022-12-18T14:17:23.947Z,56.83
2022-12-18T14:20:16.235Z,56.35
2022-12-18T14:23:03.187Z,60.33
2022-12-18T14:25:48.773Z,63.47
2022-12-18T14:28:33.874Z,54.03
2022-12-18T14:31:31.439Z,64.80
2022-12-18T14:34:20.248Z,64.22
2022-12-18T14:37:05.747Z,58.80
2022-12-18T14:40:08.680Z,62.03
2022-12-18T14:42:55.843Z,68.53
2022-12-18T14:45:45.259Z,57.30
2022-12-18T14:48:43.012Z,57.58
2022-12-18T14:51:31.337Z,53.58
2022-12-18T14:54:19.817Z,54.10
2022-12-18T14:57:18.728Z,42.63
2022-12-18T15:00:16.047Z,45.38
2022-12-18T15:03:01.496Z,48.15
2022-12-18T15:05:47.261Z,44.38
2022-12-18T15:08:37.692Z,56.38
2022-12-18T15:11:35.637Z,55.65
2022-12-18T15:14:32.594Z,56.92
2022-12-18T15:17:23.939Z,64.65
2022-12-18T15:20:11.827Z,62.53
2022-12-18T15:22:57.131Z,50.50
2022-12-18T15:25:42.630Z,46.45
2022-12-18T15:28:34.736Z,45.55
2022-12-18T15:31:29.733Z,39.72
2022-12-18T15:34:22.508Z,43.40
2022-12-18T15:37:08.964Z,40.60
2022-12-18T15:39:54.386Z,36.70
2022-12-18T15:42:58.373Z,40.13
2022-12-18T15:45:46.183Z,43.83
2022-12-18T15:48:35.246Z,39.67
2022-12-18T15:51:30.025Z,30.30
2022-12-18T15:54:17.021Z,47.85
2022-12-18T15:57:21.214Z,45.20
2022-12-18T16:00:15.879Z,48.20
2022-12-18T16:03:13.151Z,44.45
2022-12-18T16:06:07.408Z,39.38
2022-12-18T16:08:52.838Z,39.55
2022-12-18T16:11:46.960Z,39.58
2022-12-18T16:14:35.194Z,36.97
2022-12-18T16:17:20.635Z,37.75
2022-12-18T16:20:09.089Z,40.95
2022-12-18T16:22:54.599Z,42.17
2022-12-18T16:25:40.185Z,41.25
2022-12-18T16:28:25.326Z,42.47
2022-12-18T16:31:10.658Z,37.47
2022-12-18T16:34:20.158Z,42.83
2022-12-18T16:37:10.059Z,41.60
2022-12-18T16:39:55.606Z,41.78
2022-12-18T16:42:42.479Z,41.20
2022-12-18T16:45:33.910Z,47.75
2022-12-18T16:48:19.279Z,37.72
2022-12-18T16:51:05.987Z,43.30
2022-12-18T16:53:51.472Z,41.50
2022-12-18T16:56:37.010Z,43.03
2022-12-18T16:59:24.204Z,43.83
2022-12-18T17:02:19.187Z,46.25
2022-12-18T17:05:09.396Z,48.53
2022-12-18T17:07:57.347Z,45.72
2022-12-18T17:10:42.804Z,48.53
2022-12-18T17:13:28.165Z,48.92
2022-12-18T17:16:13.870Z,55.20
2022-12-18T17:18:59.191Z,51.42
2022-12-18T17:21:47.828Z,51.13
2022-12-18T17:24:35.422Z,37.67
2022-12-18T17:27:21.014Z,51.53
2022-12-18T17:30:06.967Z,51.67
2022-12-18T17:32:52.483Z,49.17
2022-12-18T17:35:37.689Z,51.35
2022-12-18T17:38:25.065Z,48.70
2022-12-18T17:41:11.810Z,58.60
2022-12-18T17:44:03.430Z,67.60
2022-12-18T17:46:48.635Z,44.42
2022-12-18T17:49:33.598Z,49.22
2022-12-18T17:52:19.143Z,53.58
2022-12-18T17:55:04.614Z,54.30
2022-12-18T17:57:50.215Z,53.53
2022-12-18T18:00:35.431Z,50.25
2022-12-18T18:03:21.366Z,60.63
2022-12-18T18:06:07.166Z,51.33
2022-12-18T18:08:53.721Z,51.92
2022-12-18T18:11:57.926Z,55.35
2022-12-18T18:14:43.394Z,64.30
2022-12-18T18:17:28.688Z,55.00
2022-12-18T18:20:22.363Z,53.88
2022-12-18T18:23:08.062Z,56.33
2022-12-18T18:25:53.404Z,59.05
2022-12-18T18:28:39.133Z,63.38
2022-12-18T18:31:25.438Z,54.95
2022-12-18T18:34:15.337Z,60.78
2022-12-18T18:37:01.979Z,66.13
2022-12-18T18:39:47.372Z,57.92
2022-12-18T18:42:32.379Z,65.15
2022-12-18T18:45:17.788Z,52.35
2022-12-18T18:48:03.379Z,62.15
2022-12-18T18:50:59.162Z,60.30
2022-12-18T18:53:46.838Z,57.63
2022-12-18T18:59:37.402Z,68.32
2022-12-18T19:02:23.003Z,65.35
2022-12-18T19:05:08.791Z,67.35
2022-12-18T19:07:55.362Z,63.50
2022-12-18T19:10:41.702Z,62.97
2022-12-18T19:13:32.139Z,64.45
2022-12-18T19:16:17.653Z,62.83
2022-12-18T19:19:03.247Z,66.63
2022-12-18T19:21:49.956Z,63.38
2022-12-18T19:24:35.757Z,67.95
2022-12-18T19:27:21.045Z,64.88
2022-12-18T19:30:07.164Z,69.88
2022-12-18T19:32:52.666Z,70.53
2022-12-18T19:35:37.871Z,61.00
2022-12-18T19:38:23.505Z,61.33
2022-12-18T19:41:08.899Z,67.43
2022-12-18T19:43:54.527Z,64.22
2022-12-18T19:46:42.857Z,61.22
2022-12-18T19:49:28.487Z,68.38
2022-12-18T19:52:16.042Z,73.55
2022-12-18T19:55:01.992Z,69.00
2022-12-18T19:57:47.258Z,67.05
2022-12-18T20:00:32.738Z,70.40
2022-12-18T20:03:27.167Z,63.70
2022-12-18T20:06:20.203Z,66.07
2022-12-18T20:09:06.736Z,64.78
2022-12-18T20:11:51.998Z,71.70
2022-12-18T20:14:37.478Z,66.55
2022-12-18T20:17:23.185Z,73.75
2022-12-18T20:20:08.742Z,61.00
2022-12-18T20:22:54.221Z,65.22
2022-12-18T20:25:39.367Z,58.78
2022-12-18T20:28:25.257Z,67.95
2022-12-18T20:31:13.695Z,62.17
2022-12-18T20:34:01.708Z,65.93
2022-12-18T20:36:49.029Z,70.88
2022-12-18T20:39:35.078Z,68.10
2022-12-18T20:42:21.318Z,64.20
2022-12-18T20:45:07.146Z,63.80
2022-12-18T20:47:54.920Z,66.30
2022-12-18T20:50:40.311Z,60.35
2022-12-18T20:53:25.398Z,63.60
2022-12-18T20:56:14.758Z,62.45
2022-12-18T20:59:03.360Z,58.38
2022-12-18T21:01:49.927Z,64.45
2022-12-18T21:04:35.321Z,63.90
2022-12-18T21:07:20.771Z,68.47
2022-12-18T21:10:06.800Z,67.25
2022-12-18T21:13:00.044Z,63.53
2022-12-18T21:15:47.192Z,64.68
2022-12-18T21:18:32.295Z,64.93
2022-12-18T21:21:21.868Z,65.93
2022-12-18T21:24:12.126Z,64.65
2022-12-18T21:26:57.534Z,67.32
2022-12-18T21:29:43.549Z,67.00
2022-12-18T21:32:29.882Z,74.18
2022-12-18T21:35:19.066Z,64.57
2022-12-18T21:38:06.345Z,67.32
2022-12-18T21:40:51.164Z,68.20
2022-12-18T21:43:58.547Z,71.65
2022-12-18T21:46:51.528Z,65.50
2022-12-18T21:49:40.555Z,114.55
2022-12-18T21:52:32.600Z,89.63
2022-12-18T21:55:18.517Z,72.95
2022-12-18T21:58:03.657Z,71.07
2022-12-18T22:00:50.020Z,65.55
2022-12-18T22:03:35.577Z,63.65
2022-12-18T22:06:20.570Z,62.00
2022-12-18T22:09:06.648Z,62.28
2022-12-18T22:11:52.451Z,66.95
2022-12-18T22:14:38.264Z,63.90
2022-12-18T22:17:23.519Z,58.17
2022-12-18T22:20:10.174Z,65.93
2022-12-18T22:22:55.477Z,59.20
2022-12-18T22:25:41.045Z,59.65
2022-12-18T22:28:45.016Z,56.95
2022-12-18T22:31:30.246Z,58.90
2022-12-18T22:34:19.385Z,58.17
2022-12-18T22:37:07.045Z,54.85
2022-12-18T22:39:52.466Z,58.78
2022-12-18T22:42:40.482Z,57.10
2022-12-18T22:45:26.708Z,51.47
2022-12-18T22:48:11.823Z,54.40
2022-12-18T22:50:59.524Z,55.20
2022-12-18T22:53:45.814Z,54.88
2022-12-18T22:56:33.752Z,44.92
2022-12-18T22:59:21.283Z,57.35
2022-12-18T23:02:06.726Z,57.22
2022-12-18T23:04:52.282Z,54.35
2022-12-18T23:07:37.799Z,55.38
2022-12-18T23:10:23.181Z,51.83
2022-12-18T23:13:08.510Z,55.40
2022-12-18T23:15:54.247Z,52.85
2022-12-18T23:18:40.840Z,55.40
2022-12-18T23:21:26.070Z,55.25
2022-12-18T23:24:12.855Z,50.05
2022-12-18T23:26:57.928Z,47.35
2022-12-18T23:29:43.192Z,53.85
2022-12-18T23:32:30.613Z,52.17
2022-12-18T23:35:18.436Z,51.00
2022-12-18T23:38:03.500Z,58.90
2022-12-18T23:40:48.960Z,49.47
2022-12-18T23:43:38.418Z,54.67
2022-12-18T23:46:30.185Z,50.53
2022-12-18T23:49:16.150Z,48.42
2022-12-18T23:52:01.615Z,49.90
2022-12-18T23:54:47.305Z,47.03
2022-12-18T23:57:32.334Z,49.38
